Time;durP1;ratioP1;P1;durP2;ratioP2;P2;SDS_P1;SDS_P2;PMS_P1;PMS_P2;Temp;Humidity;BMP_temperature;BMP_pressure;BME280_temperature;BME280_humidity;BME280_pressure;Samples;Min_cycle;Max_cycle;Signal;HPM_P1;HPM_P2
2022/09/22 00:03:20;;;;;;;2.28;0.90;;;;;;;;;;8324391;28;20119;-56
2022/09/22 00:07:20;;;;;;;1.35;0.90;;;;;;;;;;8327661;28;20028;-56
2022/09/22 00:11:21;;;;;;;1.40;1.10;;;;;;;;;;8330643;28;20049;-56
2022/09/22 00:15:22;;;;;;;1.00;0.90;;;;;;;;;;8329782;28;20021;-55
2022/09/22 00:19:24;;;;;;;1.35;0.95;;;;;;;;;;8329403;28;20029;-56
2022/09/22 00:23:25;;;;;;;1.58;1.00;;;;;;;;;;8329808;28;20024;-56
2022/09/22 00:27:25;;;;;;;2.38;0.98;;;;;;;;;;8328126;28;20040;-56
2022/09/22 00:31:26;;;;;;;1.50;0.80;;;;;;;;;;8328939;28;20041;-56
2022/09/22 00:35:26;;;;;;;2.03;0.93;;;;;;;;;;8327290;28;20025;-55
2022/09/22 00:39:29;;;;;;;0.93;0.80;;;;;;;;;;8328562;28;20028;-56
2022/09/22 00:43:32;;;;;;;1.77;0.82;;;;;;;;;;8326069;28;20062;-56
2022/09/22 00:47:38;;;;;;;0.85;0.85;;;;;;;;;;8314693;28;20800;-58
2022/09/22 00:51:40;;;;;;;0.95;0.80;;;;;;;;;;8326697;28;20655;-56
2022/09/22 00:55:45;;;;;;;1.30;0.82;;;;;;;;;;8326575;28;20020;-56
2022/09/22 00:59:46;;;;;;;1.33;0.90;;;;;;;;;;8326545;28;20075;-56
2022/09/22 01:03:48;;;;;;;1.77;0.98;;;;;;;;;;8327522;28;20036;-56
2022/09/22 01:07:49;;;;;;;1.25;1.00;;;;;;;;;;8329453;28;20036;-58
2022/09/22 01:11:49;;;;;;;1.20;0.93;;;;;;;;;;8326443;28;20659;-55
2022/09/22 01:15:50;;;;;;;3.38;0.93;;;;;;;;;;8327091;28;20044;-56
2022/09/22 01:20:02;;;;;;;2.92;1.20;;;;;;;;;;8322242;28;20028;-56
2022/09/22 01:24:21;;;;;;;1.23;1.13;;;;;;;;;;8322875;28;20706;-55
2022/09/22 01:28:26;;;;;;;1.10;1.00;;;;;;;;;;8324602;28;20021;-55
2022/09/22 01:32:31;;;;;;;1.05;1.02;;;;;;;;;;8324516;28;20094;-56
2022/09/22 01:36:50;;;;;;;0.90;0.90;;;;;;;;;;8328327;28;20068;-56
2022/09/22 01:40:56;;;;;;;1.08;1.08;;;;;;;;;;8326459;28;20148;-56
2022/09/22 01:45:03;;;;;;;1.48;1.10;;;;;;;;;;8327625;28;20513;-56
2022/09/22 01:49:06;;;;;;;3.95;1.30;;;;;;;;;;8324409;28;20045;-55
2022/09/22 01:53:09;;;;;;;1.07;0.97;;;;;;;;;;8324393;28;20060;-56
2022/09/22 01:57:18;;;;;;;3.58;1.38;;;;;;;;;;8326189;28;20055;-56
2022/09/22 02:01:21;;;;;;;4.32;1.33;;;;;;;;;;8317633;28;20025;-56
2022/09/22 02:05:25;;;;;;;1.27;1.17;;;;;;;;;;8294498;28;20017;-58
2022/09/22 02:09:28;;;;;;;1.85;1.10;;;;;;;;;;8290735;28;20167;-56
2022/09/22 02:13:28;;;;;;;1.17;1.08;;;;;;;;;;8296804;28;20105;-56
2022/09/22 02:17:29;;;;;;;1.30;1.20;;;;;;;;;;8289341;28;20071;-56
2022/09/22 02:21:29;;;;;;;1.70;1.13;;;;;;;;;;8290818;28;20124;-56
2022/09/22 02:25:30;;;;;;;1.40;1.20;;;;;;;;;;8290300;28;20826;-56
2022/09/22 02:29:33;;;;;;;1.48;1.30;;;;;;;;;;8291792;28;20021;-55
2022/09/22 02:33:34;;;;;;;1.40;1.30;;;;;;;;;;8290777;28;20049;-56
2022/09/22 02:37:37;;;;;;;1.55;1.30;;;;;;;;;;8292410;28;20120;-56
2022/09/22 02:41:43;;;;;;;1.52;1.40;;;;;;;;;;8292461;28;20028;-56
2022/09/22 02:46:04;;;;;;;1.92;1.40;;;;;;;;;;8291260;28;20029;-55
2022/09/22 02:50:07;;;;;;;2.45;1.40;;;;;;;;;;8290276;28;20116;-57
2022/09/22 02:54:07;;;;;;;1.15;1.10;;;;;;;;;;8291209;28;20569;-56
2022/09/22 02:58:07;;;;;;;2.17;1.40;;;;;;;;;;8289582;28;20013;-55
2022/09/22 03:02:08;;;;;;;1.60;1.50;;;;;;;;;;8285527;28;20301;-57
2022/09/22 03:06:08;;;;;;;3.15;1.73;;;;;;;;;;8290900;28;20018;-57
2022/09/22 03:10:09;;;;;;;2.65;1.27;;;;;;;;;;8288856;28;20025;-57
2022/09/22 03:14:09;;;;;;;1.65;1.40;;;;;;;;;;8288351;28;20396;-56
2022/09/22 03:18:09;;;;;;;5.67;1.40;;;;;;;;;;8288155;28;20076;-56
2022/09/22 03:22:09;;;;;;;2.42;1.35;;;;;;;;;;8292347;28;20260;-56
2022/09/22 03:26:09;;;;;;;2.35;1.30;;;;;;;;;;8290744;28;20025;-57
2022/09/22 03:30:10;;;;;;;2.17;1.55;;;;;;;;;;8288233;28;20040;-57
2022/09/22 03:34:10;;;;;;;3.03;1.60;;;;;;;;;;8285275;28;20720;-57
2022/09/22 03:38:10;;;;;;;2.58;1.73;;;;;;;;;;8286525;28;20087;-57
2022/09/22 03:42:10;;;;;;;1.95;1.65;;;;;;;;;;8294421;28;20025;-57
2022/09/22 03:46:12;;;;;;;1.98;1.45;;;;;;;;;;8294291;28;20103;-57
2022/09/22 03:50:13;;;;;;;2.92;1.73;;;;;;;;;;8295548;28;20349;-59
2022/09/22 03:54:13;;;;;;;3.72;1.77;;;;;;;;;;8295380;28;20680;-57
2022/09/22 03:58:13;;;;;;;1.77;1.40;;;;;;;;;;8294708;28;20057;-58
2022/09/22 04:02:14;;;;;;;2.47;1.90;;;;;;;;;;8296305;28;20277;-57
2022/09/22 04:06:14;;;;;;;2.10;1.90;;;;;;;;;;8297191;28;20891;-58
2022/09/22 04:10:14;;;;;;;3.78;1.83;;;;;;;;;;8298724;28;20049;-56
2022/09/22 04:14:14;;;;;;;2.17;1.92;;;;;;;;;;8296566;28;20057;-56
2022/09/22 04:18:15;;;;;;;2.20;2.00;;;;;;;;;;8295021;28;20069;-56
2022/09/22 04:22:15;;;;;;;2.88;2.00;;;;;;;;;;8293357;28;20030;-56
2022/09/22 04:26:15;;;;;;;3.45;2.10;;;;;;;;;;8296311;28;20131;-56
2022/09/22 04:30:15;;;;;;;2.63;1.83;;;;;;;;;;8295497;28;20029;-57
2022/09/22 04:34:16;;;;;;;1.95;1.60;;;;;;;;;;8295766;28;20036;-56
2022/09/22 04:38:16;;;;;;;2.25;1.80;;;;;;;;;;8298223;28;20053;-57
2022/09/22 04:42:16;;;;;;;2.28;1.90;;;;;;;;;;8296322;28;20067;-57
2022/09/22 04:46:17;;;;;;;1.70;1.60;;;;;;;;;;8296541;28;20029;-56
2022/09/22 04:50:18;;;;;;;2.97;1.93;;;;;;;;;;8290132;28;20025;-57
2022/09/22 04:54:19;;;;;;;6.88;3.00;;;;;;;;;;8293989;28;20283;-57
2022/09/22 04:58:19;;;;;;;2.83;2.42;;;;;;;;;;8293937;28;20022;-57
2022/09/22 05:02:19;;;;;;;4.10;2.40;;;;;;;;;;8295193;28;20037;-56
2022/09/22 05:06:19;;;;;;;2.40;2.03;;;;;;;;;;8292677;28;20253;-59
2022/09/22 05:10:21;;;;;;;4.32;2.00;;;;;;;;;;8294865;28;20031;-57
2022/09/22 05:14:21;;;;;;;3.28;1.98;;;;;;;;;;8296684;28;20125;-56
2022/09/22 05:18:22;;;;;;;4.53;1.92;;;;;;;;;;8292357;28;20033;-57
2022/09/22 05:22:22;;;;;;;3.30;1.83;;;;;;;;;;8296079;28;20108;-57
2022/09/22 05:26:23;;;;;;;2.38;1.88;;;;;;;;;;8295643;28;20035;-57
2022/09/22 05:30:24;;;;;;;6.53;3.67;;;;;;;;;;8290150;28;20147;-57
2022/09/22 05:34:24;;;;;;;10.15;5.40;;;;;;;;;;8294229;28;20022;-56
2022/09/22 05:38:25;;;;;;;6.30;3.10;;;;;;;;;;8294596;28;20034;-57
2022/09/22 05:42:25;;;;;;;4.60;3.07;;;;;;;;;;8291576;28;20162;-57
2022/09/22 05:46:25;;;;;;;5.63;3.22;;;;;;;;;;8292561;28;20267;-57
2022/09/22 05:50:25;;;;;;;2.03;1.83;;;;;;;;;;8291947;28;20086;-56
2022/09/22 05:54:26;;;;;;;2.25;2.00;;;;;;;;;;8292123;28;20025;-57
2022/09/22 05:58:26;;;;;;;7.72;3.72;;;;;;;;;;8290531;28;20028;-56
2022/09/22 06:02:26;;;;;;;6.38;3.47;;;;;;;;;;8288664;28;20041;-57
2022/09/22 06:06:26;;;;;;;5.40;3.10;;;;;;;;;;8293051;28;20021;-57
2022/09/22 06:10:27;;;;;;;4.60;2.42;;;;;;;;;;8290785;28;20360;-57
2022/09/22 06:14:27;;;;;;;2.55;2.30;;;;;;;;;;8295051;28;20030;-58
2022/09/22 06:18:29;;;;;;;4.68;2.03;;;;;;;;;;8290387;28;20098;-58
2022/09/22 06:22:30;;;;;;;3.10;2.10;;;;;;;;;;8292396;28;20129;-57
2022/09/22 06:26:30;;;;;;;3.50;2.30;;;;;;;;;;8290921;28;20060;-58
2022/09/22 06:30:34;;;;;;;2.75;1.85;;;;;;;;;;8291077;28;20082;-59
2022/09/22 06:34:34;;;;;;;2.20;1.85;;;;;;;;;;8291666;28;20028;-59
2022/09/22 06:38:34;;;;;;;1.70;1.60;;;;;;;;;;8291473;28;20029;-58
2022/09/22 06:42:35;;;;;;;2.15;1.70;;;;;;;;;;8305902;28;20437;-58
2022/09/22 06:46:36;;;;;;;2.88;1.70;;;;;;;;;;8294752;28;20152;-57
2022/09/22 06:50:39;;;;;;;1.95;1.50;;;;;;;;;;8293500;28;20055;-58
2022/09/22 06:54:40;;;;;;;1.83;1.42;;;;;;;;;;8292219;28;20029;-58
2022/09/22 06:58:42;;;;;;;1.48;1.35;;;;;;;;;;8292847;28;20374;-58
2022/09/22 07:02:42;;;;;;;3.60;1.88;;;;;;;;;;8290420;28;20079;-58
2022/09/22 07:06:42;;;;;;;1.92;1.70;;;;;;;;;;8292571;28;20018;-58
2022/09/22 07:10:43;;;;;;;2.17;1.67;;;;;;;;;;8292586;28;20822;-58
2022/09/22 07:14:47;;;;;;;2.78;1.52;;;;;;;;;;8293204;28;20025;-58
2022/09/22 07:18:49;;;;;;;3.58;1.50;;;;;;;;;;8288783;28;20072;-59
2022/09/22 07:22:49;;;;;;;1.58;1.48;;;;;;;;;;8292343;28;20128;-58
2022/09/22 07:26:50;;;;;;;3.47;1.52;;;;;;;;;;8291250;28;20025;-58
2022/09/22 07:30:50;;;;;;;2.00;1.38;;;;;;;;;;8291804;28;20046;-59
2022/09/22 07:34:52;;;;;;;2.15;1.40;;;;;;;;;;8292523;28;20513;-59
2022/09/22 07:38:53;;;;;;;2.40;1.30;;;;;;;;;;8292524;28;20076;-58
2022/09/22 07:42:53;;;;;;;3.53;1.60;;;;;;;;;;8292223;28;20658;-59
2022/09/22 07:46:54;;;;;;;3.45;1.67;;;;;;;;;;8292370;28;20034;-59
2022/09/22 07:50:54;;;;;;;1.92;1.40;;;;;;;;;;8290924;28;20110;-59
2022/09/22 07:54:54;;;;;;;1.48;1.38;;;;;;;;;;8288867;28;20046;-58
2022/09/22 07:58:54;;;;;;;4.68;1.52;;;;;;;;;;8290209;28;20017;-59
2022/09/22 08:02:56;;;;;;;4.82;1.50;;;;;;;;;;8289511;28;20048;-58
2022/09/22 08:06:56;;;;;;;4.90;1.63;;;;;;;;;;8289290;28;20029;-58
2022/09/22 08:11:02;;;;;;;1.80;1.52;;;;;;;;;;8288628;28;20133;-58
2022/09/22 08:15:02;;;;;;;2.65;1.40;;;;;;;;;;8291795;28;20827;-58
2022/09/22 08:19:09;;;;;;;2.77;1.43;;;;;;;;;;8318800;28;20029;-58
2022/09/22 08:23:09;;;;;;;2.08;1.50;;;;;;;;;;8322595;28;20017;-58
2022/09/22 08:27:10;;;;;;;1.55;1.30;;;;;;;;;;8326619;28;20028;-58
2022/09/22 08:31:11;;;;;;;2.00;1.40;;;;;;;;;;8326264;28;20042;-58
2022/09/22 08:35:11;;;;;;;1.95;1.40;;;;;;;;;;8328587;28;20027;-59
2022/09/22 08:39:12;;;;;;;2.08;1.50;;;;;;;;;;8329540;28;20108;-58
2022/09/22 08:43:13;;;;;;;1.50;1.25;;;;;;;;;;8328287;28;20718;-60
2022/09/22 08:51:50;;;;;;;1.42;1.30;;;;;;;;;;8309705;28;20029;-58
2022/09/22 08:51:51;;;;;;;2.40;1.38;;;;;;;;;;8295536;28;20674;-58
2022/09/22 08:55:54;;;;;;;1.73;1.40;;;;;;;;;;8295352;28;20595;-58
2022/09/22 09:00:06;;;;;;;1.75;1.50;;;;;;;;;;8292695;28;20048;-58
2022/09/22 09:04:17;;;;;;;4.20;1.30;;;;;;;;;;8328740;28;20095;-58
2022/09/22 09:08:30;;;;;;;3.75;1.35;;;;;;;;;;8326107;28;20135;-58
2022/09/22 09:12:50;;;;;;;3.58;1.20;;;;;;;;;;8328213;28;20132;-58
2022/09/22 09:16:59;;;;;;;1.40;1.30;;;;;;;;;;8327880;28;20049;-58
2022/09/22 09:21:01;;;;;;;2.22;1.33;;;;;;;;;;8326194;28;20680;-57
2022/09/22 09:25:06;;;;;;;3.00;1.50;;;;;;;;;;8326725;28;20025;-58
2022/09/22 09:29:08;;;;;;;3.75;1.50;;;;;;;;;;8326956;28;20016;-57
2022/09/22 09:33:32;;;;;;;3.85;1.52;;;;;;;;;;8326343;28;20115;-57
2022/09/22 09:37:32;;;;;;;3.72;1.55;;;;;;;;;;8319225;28;20750;-58
2022/09/22 09:41:34;;;;;;;1.83;1.50;;;;;;;;;;8325364;28;20546;-58
2022/09/22 09:45:41;;;;;;;3.00;1.40;;;;;;;;;;8308367;28;20045;-58
2022/09/22 09:49:42;;;;;;;3.83;1.60;;;;;;;;;;8293935;28;20038;-57
2022/09/22 09:53:43;;;;;;;2.22;1.63;;;;;;;;;;8291246;28;21072;-58
2022/09/22 09:58:02;;;;;;;2.40;1.90;;;;;;;;;;8294030;28;20840;-58
2022/09/22 10:02:02;;;;;;;2.85;1.70;;;;;;;;;;8288860;28;20033;-58
2022/09/22 10:06:05;;;;;;;1.90;1.70;;;;;;;;;;8293715;28;20063;-58
2022/09/22 10:10:40;;;;;;;2.20;1.83;;;;;;;;;;8293985;28;20909;-58
2022/09/22 10:14:47;;;;;;;3.65;2.28;;;;;;;;;;8252541;28;20132;-57
2022/09/22 10:18:49;;;;;;;2.63;2.30;;;;;;;;;;8292205;28;20033;-58
2022/09/22 10:22:49;;;;;;;3.47;1.75;;;;;;;;;;8290921;28;20216;-57
2022/09/22 10:26:54;;;;;;;1.83;1.35;;;;;;;;;;8293450;28;20021;-57
2022/09/22 10:30:59;;;;;;;3.17;1.73;;;;;;;;;;8289544;28;20692;-57
2022/09/22 10:34:59;;;;;;;1.55;1.38;;;;;;;;;;8291075;28;20123;-58
2022/09/22 10:39:00;;;;;;;1.20;1.00;;;;;;;;;;8289793;28;20060;-58
2022/09/22 10:43:01;;;;;;;4.03;1.27;;;;;;;;;;8293812;28;20038;-58
2022/09/22 10:47:05;;;;;;;1.52;1.15;;;;;;;;;;8292178;28;20038;-58
2022/09/22 10:51:05;;;;;;;2.45;1.10;;;;;;;;;;8292689;28;20456;-58
2022/09/22 10:55:06;;;;;;;3.90;1.40;;;;;;;;;;8288247;28;20041;-58
2022/09/22 10:59:14;;;;;;;1.95;1.20;;;;;;;;;;8291077;28;20032;-58
2022/09/22 11:03:14;;;;;;;2.42;1.20;;;;;;;;;;8291784;28;20038;-58
2022/09/22 11:16:10;;;;;;;2.92;1.17;;;;;;;;;;8290346;28;20049;-58
2022/09/22 11:20:21;;;;;;;1.83;1.20;;;;;;;;;;8288342;28;20487;-58
2022/09/22 11:24:22;;;;;;;3.33;1.38;;;;;;;;;;8292864;28;20198;-58
2022/09/22 11:28:42;;;;;;;3.10;1.10;;;;;;;;;;8290545;28;20104;-58
2022/09/22 11:32:55;;;;;;;1.98;1.20;;;;;;;;;;8293663;28;21091;-58
2022/09/22 11:37:24;;;;;;;1.80;1.27;;;;;;;;;;8291698;28;20029;-58
2022/09/22 11:41:29;;;;;;;2.20;1.20;;;;;;;;;;8290961;28;20021;-59
2022/09/22 11:45:35;;;;;;;2.45;1.38;;;;;;;;;;8292183;28;20068;-58
2022/09/22 11:49:47;;;;;;;2.85;1.10;;;;;;;;;;8288534;28;20027;-58
2022/09/22 11:53:50;;;;;;;2.42;1.33;;;;;;;;;;8290374;28;20477;-58
2022/09/22 11:57:54;;;;;;;2.45;1.40;;;;;;;;;;8291472;28;20029;-58
2022/09/22 12:01:57;;;;;;;1.52;1.10;;;;;;;;;;8291304;28;20033;-58
2022/09/22 12:06:02;;;;;;;2.55;1.20;;;;;;;;;;8297606;28;20079;-58
2022/09/22 12:10:05;;;;;;;2.05;1.23;;;;;;;;;;8294267;28;20026;-58
2022/09/22 12:14:06;;;;;;;4.37;1.53;;;;;;;;;;8296602;28;20025;-58
2022/09/22 12:18:09;;;;;;;2.10;1.40;;;;;;;;;;8297018;28;20927;-58
2022/09/22 12:22:17;;;;;;;3.15;1.23;;;;;;;;;;8295216;28;20085;-58
2022/09/22 12:26:24;;;;;;;2.03;1.40;;;;;;;;;;8293643;28;20027;-58
2022/09/22 12:30:25;;;;;;;3.33;1.42;;;;;;;;;;8292388;28;20034;-58
2022/09/22 12:34:32;;;;;;;5.13;1.50;;;;;;;;;;8293803;28;20474;-58
2022/09/22 12:38:33;;;;;;;2.00;1.10;;;;;;;;;;8295561;28;20032;-58
2022/09/22 12:42:38;;;;;;;2.17;1.55;;;;;;;;;;8294461;28;20164;-59
2022/09/22 12:46:41;;;;;;;4.03;1.70;;;;;;;;;;8295255;28;20672;-58
2022/09/22 12:50:42;;;;;;;2.63;1.80;;;;;;;;;;8296302;28;20033;-58
2022/09/22 12:54:44;;;;;;;3.38;1.80;;;;;;;;;;8292091;28;20334;-58
2022/09/22 12:58:44;;;;;;;4.10;1.50;;;;;;;;;;8295144;28;20030;-58
2022/09/22 13:02:46;;;;;;;2.95;1.67;;;;;;;;;;8291422;28;20044;-59
2022/09/22 13:06:46;;;;;;;6.10;1.75;;;;;;;;;;8293474;28;20106;-58
2022/09/22 13:10:53;;;;;;;3.10;2.00;;;;;;;;;;8292292;28;20029;-57
2022/09/22 13:14:58;;;;;;;4.65;1.98;;;;;;;;;;8295800;28;20056;-58
2022/09/22 13:18:59;;;;;;;2.92;1.98;;;;;;;;;;8291751;28;20029;-58
2022/09/22 13:23:04;;;;;;;2.05;1.70;;;;;;;;;;8294704;28;20104;-58
2022/09/22 13:27:04;;;;;;;4.60;1.50;;;;;;;;;;8295755;28;20086;-57
2022/09/22 13:31:12;;;;;;;6.65;1.73;;;;;;;;;;8288274;28;20588;-58
2022/09/22 13:35:29;;;;;;;3.13;1.60;;;;;;;;;;8291615;28;20040;-58
2022/09/22 13:39:31;;;;;;;4.38;1.80;;;;;;;;;;8286710;28;20033;-57
2022/09/22 13:43:36;;;;;;;6.20;1.58;;;;;;;;;;8289599;28;20055;-58
2022/09/22 13:47:38;;;;;;;4.05;1.58;;;;;;;;;;8290142;28;20083;-58
2022/09/22 13:51:38;;;;;;;3.17;1.80;;;;;;;;;;8286054;28;20022;-59
2022/09/22 13:55:38;;;;;;;3.50;1.70;;;;;;;;;;8289001;28;20033;-58
2022/09/22 13:59:39;;;;;;;3.22;1.65;;;;;;;;;;8286996;28;20067;-58
2022/09/22 14:03:40;;;;;;;2.22;1.65;;;;;;;;;;8289429;28;20449;-58
2022/09/22 14:07:40;;;;;;;2.33;1.70;;;;;;;;;;8294465;28;20123;-58
2022/09/22 14:11:40;;;;;;;2.55;1.50;;;;;;;;;;8293562;28;20072;-58
2022/09/22 14:15:44;;;;;;;2.90;1.70;;;;;;;;;;8293261;28;20057;-58
2022/09/22 14:19:51;;;;;;;6.63;1.90;;;;;;;;;;8290800;28;20117;-58
2022/09/22 14:23:52;;;;;;;2.95;1.70;;;;;;;;;;8291775;28;20651;-57
2022/09/22 14:27:54;;;;;;;2.33;1.50;;;;;;;;;;8291424;28;20155;-59
2022/09/22 14:31:57;;;;;;;2.20;1.73;;;;;;;;;;8285818;28;20395;-58
2022/09/22 14:36:03;;;;;;;2.67;1.77;;;;;;;;;;8293473;28;20032;-58
2022/09/22 14:40:05;;;;;;;2.38;1.42;;;;;;;;;;8292570;28;20056;-58
2022/09/22 14:44:27;;;;;;;1.83;1.42;;;;;;;;;;8288900;28;20108;-58
2022/09/22 14:48:29;;;;;;;2.67;1.55;;;;;;;;;;8289831;28;20068;-58
2022/09/22 14:52:30;;;;;;;3.03;1.20;;;;;;;;;;8290064;28;20037;-58
2022/09/22 14:56:32;;;;;;;2.30;1.63;;;;;;;;;;8288807;28;20051;-59
2022/09/22 15:04:51;;;;;;;1.88;1.40;;;;;;;;;;8295087;28;20086;-58
2022/09/22 15:08:52;;;;;;;2.78;1.20;;;;;;;;;;8289070;28;20028;-58
2022/09/22 15:12:52;;;;;;;1.85;1.30;;;;;;;;;;8290531;28;20028;-58
2022/09/22 15:18:11;;;;;;;1.52;1.02;;;;;;;;;;8291111;28;20040;-57
2022/09/22 15:21:13;;;;;;;2.58;1.60;;;;;;;;;;8290307;28;20038;-58
2022/09/22 15:25:15;;;;;;;1.88;1.30;;;;;;;;;;8291475;28;20027;-58
2022/09/22 15:29:16;;;;;;;4.40;1.30;;;;;;;;;;8289390;28;20864;-58
2022/09/22 15:33:17;;;;;;;1.27;1.17;;;;;;;;;;8289046;28;20064;-57
2022/09/22 15:37:19;;;;;;;3.85;1.25;;;;;;;;;;8296086;28;20025;-58
2022/09/22 15:41:19;;;;;;;5.97;1.52;;;;;;;;;;8296193;28;20445;-57
2022/09/22 15:45:22;;;;;;;3.47;1.40;;;;;;;;;;8298504;28;20032;-58
2022/09/22 15:49:25;;;;;;;1.73;1.45;;;;;;;;;;8295400;28;20063;-58
2022/09/22 15:53:25;;;;;;;1.35;1.25;;;;;;;;;;8296656;28;20044;-58
2022/09/22 15:57:25;;;;;;;2.63;1.48;;;;;;;;;;8296684;28;20030;-58
2022/09/22 16:01:26;;;;;;;2.17;1.43;;;;;;;;;;8295428;28;20384;-57
2022/09/22 16:05:28;;;;;;;5.07;1.33;;;;;;;;;;8296828;28;20363;-58
2022/09/22 16:09:28;;;;;;;2.58;1.27;;;;;;;;;;8296754;28;20111;-58
2022/09/22 16:13:30;;;;;;;2.05;1.27;;;;;;;;;;8297722;28;20641;-58
2022/09/22 16:17:30;;;;;;;2.22;1.20;;;;;;;;;;8297052;28;20049;-58
2022/09/22 16:21:34;;;;;;;0.93;0.93;;;;;;;;;;8293931;28;20032;-58
2022/09/22 16:25:34;;;;;;;3.00;1.58;;;;;;;;;;8295992;28;20754;-54
2022/09/22 16:29:36;;;;;;;2.53;1.10;;;;;;;;;;8292498;28;20469;-55
2022/09/22 16:33:36;;;;;;;2.95;1.17;;;;;;;;;;8296798;28;20501;-54
2022/09/22 16:37:36;;;;;;;1.40;1.20;;;;;;;;;;8295420;28;20042;-61
2022/09/22 16:41:42;;;;;;;2.83;1.30;;;;;;;;;;8301114;28;20021;-60
2022/09/22 16:50:01;;;;;;;4.97;1.70;;;;;;;;;;8295346;28;20056;-61
2022/09/22 16:54:01;;;;;;;3.10;1.10;;;;;;;;;;8326202;28;20021;-56
2022/09/22 16:58:04;;;;;;;3.17;1.23;;;;;;;;;;8294576;28;20138;-57
2022/09/22 17:02:05;;;;;;;1.67;1.00;;;;;;;;;;8291675;28;20030;-56
2022/09/22 17:06:06;;;;;;;2.30;1.20;;;;;;;;;;8294187;28;20025;-56
2022/09/22 17:10:07;;;;;;;1.58;1.02;;;;;;;;;;8292280;28;20665;-58
2022/09/22 17:14:10;;;;;;;3.65;1.10;;;;;;;;;;8294302;28;20025;-55
2022/09/22 17:18:10;;;;;;;1.95;1.27;;;;;;;;;;8293043;28;20041;-56
2022/09/22 17:22:11;;;;;;;2.03;1.00;;;;;;;;;;8291684;28;20024;-56
2022/09/22 17:26:11;;;;;;;0.77;0.75;;;;;;;;;;8291879;28;20051;-57
2022/09/22 17:30:11;;;;;;;1.58;1.05;;;;;;;;;;8293250;28;20141;-56
2022/09/22 17:34:12;;;;;;;1.35;0.98;;;;;;;;;;8293997;28;20032;-56
2022/09/22 17:38:12;;;;;;;3.30;1.40;;;;;;;;;;8290185;28;20675;-56
2022/09/22 17:42:14;;;;;;;2.58;1.23;;;;;;;;;;8289782;28;20045;-56
2022/09/22 17:46:15;;;;;;;3.00;1.40;;;;;;;;;;8285190;28;20037;-56
2022/09/22 17:58:58;;;;;;;1.40;1.13;;;;;;;;;;8283988;28;20091;-59
2022/09/22 18:02:58;;;;;;;3.50;1.37;;;;;;;;;;8281810;28;20482;-57
2022/09/22 18:07:00;;;;;;;2.03;1.50;;;;;;;;;;8286935;28;20460;-59
2022/09/22 18:11:00;;;;;;;3.08;1.02;;;;;;;;;;8285548;28;20057;-57
2022/09/22 18:15:02;;;;;;;1.35;1.23;;;;;;;;;;8287390;28;20018;-57
2022/09/22 18:19:05;;;;;;;2.72;1.30;;;;;;;;;;8318665;28;20110;-57
2022/09/22 18:23:05;;;;;;;1.40;1.10;;;;;;;;;;8318097;28;20013;-57
2022/09/22 18:27:06;;;;;;;1.85;1.25;;;;;;;;;;8321105;28;20796;-57
2022/09/22 18:31:06;;;;;;;2.78;1.20;;;;;;;;;;8318830;28;20033;-58
2022/09/22 18:35:07;;;;;;;2.75;1.90;;;;;;;;;;8317882;28;20582;-59
2022/09/22 18:39:08;;;;;;;3.65;1.77;;;;;;;;;;8318586;28;20710;-58
2022/09/22 18:43:09;;;;;;;4.13;1.60;;;;;;;;;;8320635;28;20040;-59
2022/09/22 18:47:13;;;;;;;2.53;1.67;;;;;;;;;;8319153;28;20037;-58
2022/09/22 18:51:13;;;;;;;1.40;1.30;;;;;;;;;;8314742;28;20029;-59
2022/09/22 18:55:17;;;;;;;3.40;1.40;;;;;;;;;;8318892;28;20042;-59
2022/09/22 18:59:18;;;;;;;2.90;1.47;;;;;;;;;;8319265;28;20036;-59
2022/09/22 19:03:18;;;;;;;2.22;1.30;;;;;;;;;;8315981;28;20099;-59
2022/09/22 19:07:37;;;;;;;1.50;1.00;;;;;;;;;;8318977;28;20110;-59
2022/09/22 19:11:37;;;;;;;3.15;1.27;;;;;;;;;;8314579;28;20029;-59
2022/09/22 19:15:40;;;;;;;1.97;1.10;;;;;;;;;;8315328;28;20121;-60
2022/09/22 19:19:40;;;;;;;1.90;1.13;;;;;;;;;;8318124;28;20326;-59
2022/09/22 19:23:40;;;;;;;1.38;1.10;;;;;;;;;;8317494;28;20025;-59
2022/09/22 19:27:40;;;;;;;2.17;1.10;;;;;;;;;;8321959;28;20032;-59
2022/09/22 19:31:41;;;;;;;2.47;1.08;;;;;;;;;;8317615;28;20041;-59
2022/09/22 19:35:41;;;;;;;1.35;1.00;;;;;;;;;;8319647;28;20889;-59
2022/09/22 19:39:41;;;;;;;2.97;1.00;;;;;;;;;;8316951;28;20120;-59
2022/09/22 19:43:42;;;;;;;2.88;1.10;;;;;;;;;;8319252;28;20715;-59
2022/09/22 19:47:42;;;;;;;1.73;1.10;;;;;;;;;;8319751;28;20524;-58
2022/09/22 19:51:42;;;;;;;1.13;1.00;;;;;;;;;;8314658;28;20898;-58
2022/09/22 19:55:42;;;;;;;0.80;0.80;;;;;;;;;;8316007;28;20037;-59
2022/09/22 19:59:43;;;;;;;2.30;0.93;;;;;;;;;;8319871;28;20294;-58
2022/09/22 20:03:45;;;;;;;2.22;1.23;;;;;;;;;;8319239;28;20748;-59
2022/09/22 20:07:45;;;;;;;1.00;0.90;;;;;;;;;;8320252;28;20535;-59
2022/09/22 20:11:47;;;;;;;1.50;1.40;;;;;;;;;;8321183;28;20029;-59
2022/09/22 20:15:47;;;;;;;2.00;1.35;;;;;;;;;;8320466;28;20033;-59
2022/09/22 20:19:47;;;;;;;1.53;1.30;;;;;;;;;;8318986;28;20684;-59
2022/09/22 20:23:47;;;;;;;1.92;1.30;;;;;;;;;;8326061;28;20469;-59
2022/09/22 20:27:48;;;;;;;2.92;1.40;;;;;;;;;;8325430;28;20033;-59
2022/09/22 20:31:48;;;;;;;2.88;2.10;;;;;;;;;;8324798;28;20086;-59
2022/09/22 20:35:49;;;;;;;3.15;2.55;;;;;;;;;;8326891;28;20037;-59
2022/09/22 20:39:50;;;;;;;4.15;2.28;;;;;;;;;;8324776;28;20370;-59
2022/09/22 20:43:50;;;;;;;2.55;1.80;;;;;;;;;;8325525;28;20022;-59
2022/09/22 20:47:50;;;;;;;1.80;1.50;;;;;;;;;;8327295;28;20037;-59
2022/09/22 20:51:50;;;;;;;3.17;1.30;;;;;;;;;;8324423;28;20049;-59
2022/09/22 20:55:59;;;;;;;1.63;1.35;;;;;;;;;;8325750;28;20513;-59
2022/09/22 21:00:00;;;;;;;2.95;1.23;;;;;;;;;;8327019;28;20295;-59
2022/09/22 21:04:00;;;;;;;2.80;1.45;;;;;;;;;;8325731;28;20041;-59
2022/09/22 21:12:19;;;;;;;3.30;1.40;;;;;;;;;;8324655;28;20035;-59
2022/09/22 21:16:20;;;;;;;3.00;1.63;;;;;;;;;;8322168;28;20065;-59
2022/09/22 21:20:20;;;;;;;1.90;1.58;;;;;;;;;;8328513;28;20025;-58
2022/09/22 21:24:20;;;;;;;2.50;1.30;;;;;;;;;;8326034;28;20047;-59
2022/09/22 21:28:21;;;;;;;2.97;1.20;;;;;;;;;;8325976;28;20029;-59
2022/09/22 21:32:21;;;;;;;2.00;1.73;;;;;;;;;;8324428;28;20071;-59
2022/09/22 21:36:22;;;;;;;2.60;1.40;;;;;;;;;;8325516;28;20272;-60
2022/09/22 21:40:22;;;;;;;4.35;1.65;;;;;;;;;;8328700;28;21132;-59
2022/09/22 21:44:24;;;;;;;2.47;1.40;;;;;;;;;;8325454;28;20082;-59
2022/09/22 21:48:24;;;;;;;2.60;1.60;;;;;;;;;;8328941;28;20040;-58
2022/09/22 21:52:24;;;;;;;1.85;1.50;;;;;;;;;;8323892;28;20021;-60
2022/09/22 21:56:24;;;;;;;2.40;1.90;;;;;;;;;;8322658;28;20025;-58
2022/09/22 22:00:25;;;;;;;5.07;2.58;;;;;;;;;;8324026;28;20052;-59
2022/09/22 22:04:25;;;;;;;4.07;2.95;;;;;;;;;;8325313;28;20020;-59
2022/09/22 22:08:25;;;;;;;4.40;3.03;;;;;;;;;;8325657;28;20027;-59
2022/09/22 22:12:26;;;;;;;7.18;3.65;;;;;;;;;;8324819;28;20264;-59
2022/09/22 22:16:29;;;;;;;7.68;3.60;;;;;;;;;;8326401;28;20090;-59
2022/09/22 22:20:29;;;;;;;6.53;3.13;;;;;;;;;;8327156;28;20120;-58
2022/09/22 22:24:35;;;;;;;7.28;3.60;;;;;;;;;;8324697;28;20068;-59
2022/09/22 22:28:36;;;;;;;5.47;3.17;;;;;;;;;;8327137;28;20120;-59
2022/09/22 22:32:36;;;;;;;7.50;3.38;;;;;;;;;;8323949;28;20060;-59
2022/09/22 22:36:37;;;;;;;8.80;4.25;;;;;;;;;;8325265;28;20028;-60
2022/09/22 22:40:37;;;;;;;8.25;4.15;;;;;;;;;;8323127;28;20788;-58
2022/09/22 22:44:37;;;;;;;10.97;4.43;;;;;;;;;;8324131;28;20029;-59
2022/09/22 22:48:37;;;;;;;16.88;5.25;;;;;;;;;;8324181;28;20040;-58
2022/09/22 22:52:40;;;;;;;8.73;3.05;;;;;;;;;;8322242;28;20160;-59
2022/09/22 22:56:41;;;;;;;9.80;3.50;;;;;;;;;;8320894;28;20402;-59
2022/09/22 23:00:41;;;;;;;6.88;3.30;;;;;;;;;;8321886;28;20040;-65
2022/09/22 23:04:41;;;;;;;6.70;2.88;;;;;;;;;;8324187;28;20032;-58
2022/09/22 23:08:41;;;;;;;4.80;2.47;;;;;;;;;;8324074;28;20082;-59
2022/09/22 23:12:42;;;;;;;4.22;2.20;;;;;;;;;;8319910;28;20044;-59
2022/09/22 23:16:43;;;;;;;5.68;3.03;;;;;;;;;;8323097;28;20064;-58
2022/09/22 23:20:43;;;;;;;4.72;2.38;;;;;;;;;;8324216;28;20036;-58
2022/09/22 23:24:43;;;;;;;5.47;2.15;;;;;;;;;;8320797;28;20025;-58
2022/09/22 23:28:44;;;;;;;2.03;1.70;;;;;;;;;;8327201;28;20033;-59
2022/09/22 23:32:44;;;;;;;3.63;1.73;;;;;;;;;;8322900;28;20973;-58
2022/09/22 23:36:44;;;;;;;1.85;1.65;;;;;;;;;;8323616;28;20023;-59
2022/09/22 23:40:44;;;;;;;4.20;1.63;;;;;;;;;;8325332;28;20557;-58
2022/09/22 23:44:45;;;;;;;2.60;1.52;;;;;;;;;;8321418;28;20036;-58
2022/09/22 23:48:46;;;;;;;4.47;2.60;;;;;;;;;;8322311;28;20059;-59
2022/09/22 23:52:46;;;;;;;4.57;2.65;;;;;;;;;;8320670;28;20393;-57
2022/09/22 23:56:46;;;;;;;3.97;2.90;;;;;;;;;;8325267;28;20077;-59
